Time;durP1;ratioP1;P1;durP2;ratioP2;P2;SDS_P1;SDS_P2;PMS_P1;PMS_P2;Temp;Humidity;BMP_temperature;BMP_pressure;BME280_temperature;BME280_humidity;BME280_pressure;Samples;Min_cycle;Max_cycle;Signal;HPM_P1;HPM_P2
2023/07/28 00:02:05;;;;;;;5.05;3.70;;;;;;;20.29;45.70;98497.31;5049816;28;20380;-67
2023/07/28 00:04:33;;;;;;;4.30;3.20;;;;;;;19.67;45.42;98386.56;5067685;28;20049;-68
2023/07/28 00:07:01;;;;;;;5.43;3.22;;;;;;;20.37;45.07;98491.94;5067159;28;20048;-68
2023/07/28 00:09:27;;;;;;;5.40;2.95;;;;;;;20.32;45.29;98484.38;5067631;28;20045;-68
2023/07/28 00:11:54;;;;;;;3.92;2.47;;;;;;;20.32;45.61;98473.59;5067783;28;20060;-69
2023/07/28 00:14:21;;;;;;;3.60;2.35;;;;;;;19.96;45.74;98424.63;5067469;28;20041;-68
2023/07/28 00:16:47;;;;;;;3.58;2.53;;;;;;;20.28;45.51;98482.19;5066910;28;20087;-69
2023/07/28 00:19:14;;;;;;;4.70;2.60;;;;;;;20.28;45.69;98487.56;5067490;28;20056;-68
2023/07/28 00:21:41;;;;;;;6.20;4.20;;;;;;;20.28;45.76;98493.78;5067173;28;20245;-69
2023/07/28 00:24:09;;;;;;;6.03;4.20;;;;;;;20.15;45.77;98474.56;5049251;28;20049;-69
2023/07/28 00:26:36;;;;;;;4.38;3.40;;;;;;;20.27;45.96;98497.47;5067294;28;20091;-69
2023/07/28 00:29:06;;;;;;;3.50;2.88;;;;;;;20.28;46.00;98495.63;5067181;28;20052;-68
2023/07/28 00:31:32;;;;;;;3.72;2.70;;;;;;;20.13;45.88;98461.28;5049125;28;20037;-68
2023/07/28 00:33:59;;;;;;;3.58;2.33;;;;;;;20.34;45.57;98495.81;5066874;28;20044;-68
2023/07/28 00:36:26;;;;;;;3.58;2.58;;;;;;;20.35;45.97;98485.88;5066878;28;20037;-68
2023/07/28 00:38:53;;;;;;;3.97;2.97;;;;;;;19.89;46.07;98433.50;5067104;28;20045;-68
2023/07/28 00:41:21;;;;;;;4.20;2.28;;;;;;;20.34;46.29;98492.25;5067430;28;20300;-69
2023/07/28 00:43:48;;;;;;;3.10;2.30;;;;;;;20.18;46.47;98472.38;5067537;28;20041;-68
2023/07/28 00:46:15;;;;;;;6.13;2.80;;;;;;;20.27;46.68;98493.94;5067780;28;20041;-68
2023/07/28 00:48:42;;;;;;;4.60;2.28;;;;;;;20.24;46.46;98496.97;5066602;28;20056;-68
2023/07/28 00:51:10;;;;;;;3.50;2.40;;;;;;;20.24;47.05;98495.13;5049901;28;20041;-68
2023/07/28 00:53:37;;;;;;;3.58;2.33;;;;;;;20.24;46.80;98496.97;5066685;28;20047;-68
2023/07/28 00:56:05;;;;;;;5.18;2.60;;;;;;;20.23;47.16;98485.38;5066708;28;20114;-69
2023/07/28 00:58:33;;;;;;;4.00;2.47;;;;;;;20.21;47.03;98489.19;5066290;28;20040;-69
2023/07/28 01:01:00;;;;;;;3.90;2.78;;;;;;;20.26;47.10;98484.19;5066152;28;20094;-68
2023/07/28 01:03:27;;;;;;;4.63;2.85;;;;;;;20.25;47.42;98477.97;5066008;28;20055;-68
2023/07/28 01:06:00;;;;;;;4.80;2.80;;;;;;;20.24;47.72;98486.22;5065767;28;20041;-69
2023/07/28 01:08:33;;;;;;;3.42;2.33;;;;;;;19.88;48.02;98427.28;5066283;28;20052;-68
2023/07/28 01:10:59;;;;;;;3.50;2.55;;;;;;;20.21;47.98;98476.59;5048540;28;20300;-68
2023/07/28 01:13:26;;;;;;;3.40;2.30;;;;;;;20.20;48.51;98474.91;5065749;28;20182;-68
2023/07/28 01:15:54;;;;;;;3.90;2.70;;;;;;;20.18;48.46;98475.06;5066401;28;20057;-68
2023/07/28 01:18:21;;;;;;;3.53;2.65;;;;;;;20.22;48.75;98474.75;5049177;28;20040;-68
2023/07/28 01:20:55;;;;;;;5.07;2.50;;;;;;;20.24;48.74;98470.91;5066069;28;20083;-68
2023/07/28 01:23:35;;;;;;;4.85;2.80;;;;;;;20.24;48.69;98460.13;5065637;28;20186;-69
2023/07/28 01:26:06;;;;;;;3.60;2.38;;;;;;;20.06;49.09;98441.44;5065933;28;20204;-69
2023/07/28 01:28:35;;;;;;;3.75;2.50;;;;;;;19.78;49.05;98399.69;5065882;28;20107;-68
2023/07/28 01:31:03;;;;;;;3.35;2.20;;;;;;;20.22;49.22;98474.75;5066149;28;20044;-69
2023/07/28 01:33:30;;;;;;;3.38;2.30;;;;;;;20.09;49.02;98459.94;5065765;28;20242;-69
2023/07/28 01:35:58;;;;;;;4.10;2.13;;;;;;;20.29;49.36;98479.31;5066089;28;20052;-69
2023/07/28 01:38:25;;;;;;;3.45;2.25;;;;;;;20.29;49.44;98479.31;5065801;28;20044;-68
2023/07/28 01:40:51;;;;;;;3.45;2.60;;;;;;;20.24;49.84;98483.50;5065755;28;20047;-68
2023/07/28 01:43:18;;;;;;;3.03;2.17;;;;;;;20.30;49.00;98472.09;5066040;28;20037;-69
2023/07/28 01:45:46;;;;;;;3.28;2.17;;;;;;;19.96;49.75;98427.31;5065385;28;20308;-69
2023/07/28 01:48:13;;;;;;;3.60;2.65;;;;;;;20.12;49.43;98448.84;5065654;28;20049;-69
2023/07/28 01:50:40;;;;;;;3.63;2.40;;;;;;;20.07;50.04;98447.66;5047988;28;20037;-70
2023/07/28 01:53:07;;;;;;;3.20;2.30;;;;;;;20.17;50.42;98464.47;5065254;28;20309;-70
2023/07/28 01:55:34;;;;;;;3.30;2.10;;;;;;;20.15;50.45;98463.81;5048659;28;20048;-70
2023/07/28 01:58:02;;;;;;;4.63;2.70;;;;;;;20.16;50.51;98469.00;5065585;28;20293;-70
2023/07/28 02:00:29;;;;;;;3.33;2.35;;;;;;;20.24;50.32;98460.13;5065284;28;20106;-69
2023/07/28 02:02:58;;;;;;;3.25;2.42;;;;;;;19.98;50.66;98417.22;5065540;28;20048;-70
2023/07/28 02:05:25;;;;;;;3.65;2.53;;;;;;;20.19;50.99;98460.63;5047807;28;20071;-69
2023/07/28 02:07:52;;;;;;;3.85;2.75;;;;;;;20.19;51.44;98449.84;5065774;28;20100;-70
2023/07/28 02:10:19;;;;;;;3.30;2.22;;;;;;;20.18;51.23;98458.09;5065502;28;20056;-70
2023/07/28 02:12:45;;;;;;;4.15;2.72;;;;;;;20.13;52.14;98453.22;5065454;28;20040;-69
2023/07/28 02:15:13;;;;;;;4.07;2.85;;;;;;;19.99;51.59;98424.28;5066590;28;20260;-68
2023/07/28 02:17:40;;;;;;;3.75;2.30;;;;;;;19.84;51.60;98401.75;5052877;28;20052;-68
2023/07/28 02:20:12;;;;;;;3.67;2.30;;;;;;;20.08;52.58;98454.72;5069468;28;20055;-69
2023/07/28 02:22:39;;;;;;;3.15;2.20;;;;;;;20.03;52.53;98451.69;5069491;28;20064;-68
2023/07/28 02:25:07;;;;;;;3.38;2.40;;;;;;;20.04;52.32;98448.00;5051390;28;20049;-69
2023/07/28 02:27:33;;;;;;;3.75;2.58;;;;;;;20.07;52.08;98461.94;5069016;28;20044;-69
2023/07/28 02:30:00;;;;;;;4.20;2.60;;;;;;;20.05;51.96;98452.38;5069256;28;20098;-68
2023/07/28 02:32:28;;;;;;;4.88;3.05;;;;;;;19.85;52.13;98441.91;5051418;28;20083;-69
2023/07/28 02:34:55;;;;;;;3.35;2.47;;;;;;;19.91;51.85;98437.72;5068701;28;20067;-69
2023/07/28 02:37:23;;;;;;;3.47;2.30;;;;;;;19.82;51.55;98436.03;5051335;28;20195;-69
2023/07/28 02:39:50;;;;;;;4.53;2.50;;;;;;;20.01;51.75;98464.47;5068811;28;20067;-69
2023/07/28 02:42:16;;;;;;;3.67;2.67;;;;;;;19.85;51.49;98423.09;5068726;28;20232;-69
2023/07/28 02:44:43;;;;;;;4.20;2.97;;;;;;;19.95;52.36;98439.06;5068722;28;20037;-69
2023/07/28 02:47:10;;;;;;;3.80;2.20;;;;;;;19.97;51.97;98450.50;5069160;28;20340;-69
2023/07/28 02:49:37;;;;;;;3.65;2.47;;;;;;;20.00;51.70;98449.31;5068603;28;20040;-69
2023/07/28 02:52:04;;;;;;;4.70;3.15;;;;;;;19.92;52.16;98446.63;5051675;28;20110;-69
2023/07/28 02:54:32;;;;;;;4.18;2.38;;;;;;;19.95;52.05;98447.13;5068164;28;20255;-69
2023/07/28 02:56:58;;;;;;;3.30;2.40;;;;;;;19.93;52.08;98445.63;5052084;28;20056;-69
2023/07/28 02:59:25;;;;;;;3.42;2.40;;;;;;;19.92;51.98;98449.31;5068733;28;20075;-69
2023/07/28 03:01:52;;;;;;;3.55;2.30;;;;;;;19.94;51.97;98450.84;5068626;28;20049;-69
2023/07/28 03:04:19;;;;;;;3.63;2.63;;;;;;;19.93;52.17;98459.06;5068592;28;20064;-68
2023/07/28 03:06:47;;;;;;;3.95;2.58;;;;;;;19.90;52.28;98438.72;5068339;28;20234;-68
2023/07/28 03:09:14;;;;;;;3.38;2.45;;;;;;;19.87;52.15;98433.69;5050766;28;20323;-68
2023/07/28 03:11:42;;;;;;;3.92;2.58;;;;;;;19.59;52.08;98381.19;5051261;28;20047;-68
2023/07/28 03:14:09;;;;;;;3.38;2.45;;;;;;;19.83;52.40;98435.84;5068365;28;20057;-68
2023/07/28 03:16:35;;;;;;;3.65;2.40;;;;;;;19.87;52.03;98425.63;5068422;28;20053;-69
2023/07/28 03:19:02;;;;;;;3.92;2.67;;;;;;;19.84;52.14;98434.84;5068357;28;20045;-68
2023/07/28 03:21:30;;;;;;;3.85;2.75;;;;;;;19.83;52.48;98435.00;5068464;28;20053;-69
2023/07/28 03:23:57;;;;;;;5.13;3.28;;;;;;;19.57;52.60;98396.63;5067994;28;20362;-68
2023/07/28 03:26:24;;;;;;;3.47;2.58;;;;;;;19.84;52.54;98426.78;5068110;28;20064;-69
2023/07/28 03:28:52;;;;;;;4.57;2.65;;;;;;;19.84;52.30;98436.69;5067244;28;20118;-69
2023/07/28 03:31:19;;;;;;;4.13;2.67;;;;;;;19.77;52.27;98428.41;5067740;28;20309;-69
2023/07/28 03:33:46;;;;;;;5.45;3.00;;;;;;;19.68;52.70;98425.88;5050722;28;20037;-69
2023/07/28 03:36:13;;;;;;;3.15;2.30;;;;;;;19.72;52.70;98419.16;5067930;28;20040;-68
2023/07/28 03:38:40;;;;;;;3.53;2.53;;;;;;;19.42;52.26;98367.72;5067574;28;20107;-68
2023/07/28 03:41:07;;;;;;;3.60;2.50;;;;;;;19.76;52.35;98440.19;5067507;28;20053;-68
2023/07/28 03:43:33;;;;;;;3.88;2.58;;;;;;;19.74;51.83;98438.66;5067553;28;20071;-68
2023/07/28 03:46:02;;;;;;;5.05;3.05;;;;;;;19.69;52.34;98433.78;5067781;28;20041;-68
2023/07/28 03:48:28;;;;;;;3.97;2.72;;;;;;;19.75;51.61;98432.28;5067434;28;20051;-68
2023/07/28 03:50:55;;;;;;;3.80;2.55;;;;;;;19.76;51.63;98431.28;5067636;28;20174;-68
2023/07/28 03:53:22;;;;;;;3.50;2.50;;;;;;;19.72;51.61;98429.94;5067488;28;20036;-69
2023/07/28 03:55:49;;;;;;;4.55;2.83;;;;;;;19.65;51.39;98427.06;5050461;28;20174;-69
2023/07/28 03:58:16;;;;;;;5.47;3.50;;;;;;;19.61;51.56;98427.53;5050054;28;20051;-69
2023/07/28 04:00:42;;;;;;;4.32;2.70;;;;;;;19.63;51.58;98420.16;5067724;28;20049;-69
2023/07/28 04:03:10;;;;;;;4.50;3.22;;;;;;;19.57;51.80;98405.53;5066867;28;20049;-69
2023/07/28 04:05:37;;;;;;;3.88;2.50;;;;;;;19.62;51.58;98408.56;5067658;28;20064;-69
2023/07/28 04:08:05;;;;;;;5.18;3.58;;;;;;;19.49;51.32;98390.22;5067343;28;20041;-69
2023/07/28 04:10:31;;;;;;;4.32;3.00;;;;;;;19.66;51.14;98417.97;5067025;28;20037;-69
2023/07/28 04:12:58;;;;;;;4.30;2.92;;;;;;;19.63;51.11;98417.47;5067585;28;20049;-69
2023/07/28 04:15:25;;;;;;;3.75;2.60;;;;;;;19.02;50.95;98316.53;5066930;28;20296;-69
2023/07/28 04:17:51;;;;;;;4.38;3.10;;;;;;;19.43;50.30;98400.78;5067117;28;20041;-69
2023/07/28 04:20:20;;;;;;;3.90;2.58;;;;;;;19.60;50.47;98415.13;5066900;28;20048;-69
2023/07/28 04:22:46;;;;;;;4.28;3.10;;;;;;;19.63;50.22;98412.09;5066754;28;20052;-69
2023/07/28 04:25:13;;;;;;;4.25;2.92;;;;;;;19.62;50.34;98415.78;5066633;28;20062;-68
2023/07/28 04:27:40;;;;;;;4.15;2.75;;;;;;;19.48;49.98;98401.16;5066992;28;20048;-68
2023/07/28 04:30:07;;;;;;;4.18;2.63;;;;;;;19.60;49.78;98429.41;5049193;28;20041;-68
2023/07/28 04:32:34;;;;;;;5.30;2.90;;;;;;;19.59;50.00;98427.72;5066912;28;20326;-68
2023/07/28 04:35:01;;;;;;;4.40;2.60;;;;;;;19.45;50.02;98405.00;5066494;28;20044;-69
2023/07/28 04:37:29;;;;;;;3.60;2.58;;;;;;;19.56;50.04;98428.03;5066645;28;20044;-69
2023/07/28 04:39:55;;;;;;;5.05;2.40;;;;;;;19.57;49.81;98429.72;5066349;28;20045;-69
2023/07/28 04:42:22;;;;;;;3.30;2.40;;;;;;;19.63;49.94;98423.69;5048958;28;20057;-69
2023/07/28 04:44:49;;;;;;;4.50;2.60;;;;;;;19.60;49.44;98418.63;5049733;28;20037;-69
2023/07/28 04:47:15;;;;;;;4.53;3.00;;;;;;;19.60;49.88;98428.56;5066469;28;20086;-69
2023/07/28 04:49:42;;;;;;;3.63;2.75;;;;;;;19.43;49.19;98401.63;5066783;28;20068;-69
2023/07/28 04:52:09;;;;;;;3.63;2.47;;;;;;;19.59;49.28;98434.94;5066696;28;20041;-69
2023/07/28 04:54:37;;;;;;;6.60;2.88;;;;;;;19.54;49.62;98428.19;5066104;28;20244;-69
2023/07/28 04:57:05;;;;;;;4.35;2.47;;;;;;;19.60;49.95;98417.81;5066328;28;20093;-69
2023/07/28 04:59:32;;;;;;;11.80;2.83;;;;;;;19.63;49.84;98428.22;5066098;28;20068;-68
2023/07/28 05:01:58;;;;;;;3.85;2.67;;;;;;;19.63;49.97;98431.75;5065942;28;20040;-69
2023/07/28 05:04:25;;;;;;;3.83;2.70;;;;;;;19.64;50.13;98422.69;5066214;28;20048;-68
2023/07/28 05:06:52;;;;;;;6.60;3.08;;;;;;;19.60;49.78;98428.56;5048426;28;20119;-69
2023/07/28 05:09:19;;;;;;;6.20;2.88;;;;;;;19.59;50.21;98430.41;5066193;28;20235;-69
2023/07/28 05:11:47;;;;;;;5.32;3.22;;;;;;;19.60;50.35;98434.75;5048242;28;20049;-69
2023/07/28 05:14:13;;;;;;;3.58;2.88;;;;;;;19.63;50.23;98433.59;5065679;28;20182;-69
2023/07/28 05:16:40;;;;;;;4.50;3.30;;;;;;;19.61;50.72;98436.44;5066305;28;20209;-69
2023/07/28 05:19:08;;;;;;;4.93;3.42;;;;;;;19.62;50.59;98439.97;5065694;28;20056;-69
2023/07/28 05:21:34;;;;;;;3.28;2.55;;;;;;;19.60;51.30;98445.53;5065910;28;20056;-69
2023/07/28 05:24:01;;;;;;;5.45;3.30;;;;;;;19.63;51.29;98447.88;5065426;28;20308;-69
2023/07/28 05:26:28;;;;;;;4.68;2.65;;;;;;;19.66;51.11;98442.16;5065794;28;20099;-69
2023/07/28 05:28:56;;;;;;;5.53;3.08;;;;;;;19.70;51.48;98445.38;5065699;28;20095;-69
2023/07/28 05:31:23;;;;;;;4.68;3.33;;;;;;;19.66;51.87;98449.41;5065812;28;20045;-69
2023/07/28 05:33:49;;;;;;;4.95;3.08;;;;;;;19.67;51.90;98448.38;5065748;28;20059;-69
2023/07/28 05:36:16;;;;;;;5.40;2.97;;;;;;;19.54;51.61;98430.03;5065491;28;20045;-69
2023/07/28 05:38:43;;;;;;;7.18;3.53;;;;;;;19.70;51.53;98438.16;5065668;28;20297;-69
2023/07/28 05:41:09;;;;;;;5.80;2.83;;;;;;;19.72;51.58;98448.75;5047988;28;20090;-69
2023/07/28 05:43:36;;;;;;;8.90;3.78;;;;;;;19.69;51.69;98454.44;5065639;28;20099;-69
2023/07/28 05:46:04;;;;;;;5.50;3.58;;;;;;;19.71;51.40;98449.75;5065370;28;20083;-69
2023/07/28 05:48:31;;;;;;;5.00;3.42;;;;;;;19.72;51.75;98448.75;5066150;28;20224;-69
2023/07/28 05:50:58;;;;;;;4.97;3.65;;;;;;;19.71;51.31;98450.59;5065589;28;20048;-69
2023/07/28 05:53:24;;;;;;;4.50;3.28;;;;;;;19.61;51.36;98419.47;5065423;28;20045;-68
2023/07/28 05:55:51;;;;;;;4.72;3.28;;;;;;;19.73;51.36;98434.28;5065780;28;20099;-68
2023/07/28 05:58:18;;;;;;;5.00;3.30;;;;;;;19.73;51.17;98439.66;5066003;28;20135;-68
2023/07/28 06:00:45;;;;;;;5.00;3.13;;;;;;;19.58;51.39;98414.44;5065783;28;20044;-69
2023/07/28 06:03:13;;;;;;;4.30;3.13;;;;;;;19.76;51.25;98436.66;5065211;28;20049;-69
2023/07/28 06:05:41;;;;;;;4.75;2.92;;;;;;;19.75;51.10;98443.88;5065069;28;20040;-68
2023/07/28 06:08:08;;;;;;;4.97;3.38;;;;;;;19.61;50.99;98417.63;5065082;28;20064;-69
2023/07/28 06:10:36;;;;;;;4.72;3.20;;;;;;;19.76;51.11;98453.63;5047470;28;20177;-69
2023/07/28 06:13:02;;;;;;;5.38;3.47;;;;;;;19.81;50.81;98450.47;5065264;28;20052;-69
2023/07/28 06:15:29;;;;;;;4.30;3.08;;;;;;;19.82;50.81;98446.78;5065055;28;20099;-68
2023/07/28 06:17:56;;;;;;;5.05;2.95;;;;;;;19.83;50.38;98449.31;5065225;28;20052;-68
2023/07/28 06:20:24;;;;;;;4.50;3.00;;;;;;;19.87;50.65;98449.81;5048003;28;20060;-69
2023/07/28 06:22:51;;;;;;;5.28;3.35;;;;;;;19.89;50.26;98461.25;5047601;28;20044;-69
2023/07/28 06:25:17;;;;;;;5.10;2.92;;;;;;;19.90;50.05;98451.31;5064766;28;20297;-68
2023/07/28 06:27:44;;;;;;;5.82;3.20;;;;;;;19.72;50.08;98421.84;5047381;28;20040;-69
2023/07/28 06:30:12;;;;;;;3.88;2.90;;;;;;;19.93;49.76;98443.78;5065086;28;20323;-69
2023/07/28 06:32:39;;;;;;;5.53;3.53;;;;;;;19.97;49.95;98447.81;5047446;28;20041;-68
2023/07/28 06:35:09;;;;;;;6.38;3.53;;;;;;;19.90;50.08;98430.66;5047571;28;20037;-69
2023/07/28 06:37:38;;;;;;;4.70;2.95;;;;;;;20.03;49.59;98449.84;5065113;28;20281;-69
2023/07/28 06:40:07;;;;;;;4.35;3.13;;;;;;;19.89;49.94;98422.75;5065129;28;20208;-69
2023/07/28 06:42:34;;;;;;;5.10;2.90;;;;;;;20.09;50.16;98449.16;5048175;28;20196;-69
2023/07/28 06:45:02;;;;;;;5.55;3.47;;;;;;;20.12;49.56;98451.53;5047926;28;20033;-68
2023/07/28 06:47:29;;;;;;;13.10;3.35;;;;;;;19.93;48.95;98416.88;5064987;28;20057;-69
2023/07/28 06:49:55;;;;;;;7.63;3.15;;;;;;;20.17;48.55;98445.66;5064983;28;20108;-69
2023/07/28 06:52:22;;;;;;;6.90;3.35;;;;;;;20.18;48.46;98447.31;5047442;28;20065;-68
2023/07/28 06:54:51;;;;;;;8.18;3.05;;;;;;;20.19;47.98;98447.16;5064763;28;20045;-68
2023/07/28 06:57:18;;;;;;;5.88;3.20;;;;;;;20.21;47.64;98444.31;5047003;28;20037;-68
2023/07/28 06:59:44;;;;;;;6.22;2.85;;;;;;;20.21;48.02;98436.22;5047735;28;20045;-68
2023/07/28 07:02:11;;;;;;;6.95;3.47;;;;;;;20.31;47.67;98438.78;5065318;28;20049;-68
2023/07/28 07:04:38;;;;;;;4.70;3.70;;;;;;;20.28;47.80;98398.78;5051813;28;20033;-68
2023/07/28 07:07:05;;;;;;;3.97;2.75;;;;;;;20.39;47.12;98399.25;5068493;28;20052;-68
2023/07/28 07:09:32;;;;;;;4.75;3.58;;;;;;;20.34;46.88;98384.63;5068348;28;20305;-69
2023/07/28 07:12:00;;;;;;;5.85;3.67;;;;;;;20.78;46.46;98431.66;5068348;28;20041;-69
2023/07/28 07:14:27;;;;;;;7.40;3.28;;;;;;;20.92;46.49;98434.66;5068207;28;20045;-69
2023/07/28 07:16:54;;;;;;;4.82;2.70;;;;;;;21.05;46.38;98432.31;5068513;28;20052;-69
2023/07/28 07:19:21;;;;;;;4.05;2.85;;;;;;;21.25;46.23;98447.06;5068487;28;20045;-68
2023/07/28 07:21:49;;;;;;;4.65;3.15;;;;;;;21.42;45.52;98431.66;5067744;28;20082;-69
2023/07/28 07:24:17;;;;;;;4.60;2.92;;;;;;;21.60;45.35;98445.72;5067795;28;20064;-69
2023/07/28 07:26:43;;;;;;;6.15;3.28;;;;;;;21.45;45.09;98380.09;5051044;28;20136;-69
2023/07/28 07:29:11;;;;;;;5.47;3.13;;;;;;;21.95;44.62;98438.97;5067791;28;20037;-69
2023/07/28 07:31:38;;;;;;;6.82;3.78;;;;;;;22.03;44.09;98417.31;5067806;28;20108;-69
2023/07/28 07:34:05;;;;;;;6.95;3.45;;;;;;;22.29;44.19;98437.69;5050217;28;20041;-69
2023/07/28 07:36:32;;;;;;;3.70;2.55;;;;;;;22.28;43.74;98439.56;5050375;28;20037;-68
2023/07/28 07:38:59;;;;;;;6.20;2.60;;;;;;;22.38;43.23;98428.50;5067179;28;20044;-69
2023/07/28 07:41:26;;;;;;;4.82;3.10;;;;;;;22.60;43.17;98435.81;5067723;28;20181;-69
2023/07/28 07:43:55;;;;;;;4.57;3.20;;;;;;;22.84;43.45;98437.41;5050934;28;20041;-68
2023/07/28 07:46:24;;;;;;;3.92;2.78;;;;;;;22.88;43.16;98440.59;5067477;28;20045;-68
2023/07/28 07:48:51;;;;;;;5.00;3.00;;;;;;;22.99;42.93;98434.72;5067462;28;20041;-69
2023/07/28 07:51:18;;;;;;;3.72;2.55;;;;;;;23.20;42.74;98428.56;5067572;28;20051;-69
2023/07/28 07:53:45;;;;;;;4.55;2.72;;;;;;;23.41;42.77;98439.50;5067308;28;20076;-69
2023/07/28 07:56:12;;;;;;;3.95;2.67;;;;;;;23.44;41.90;98444.53;5067210;28;20296;-69
2023/07/28 07:58:39;;;;;;;7.18;2.80;;;;;;;23.64;41.31;98440.19;5049807;28;20041;-69
2023/07/28 08:01:06;;;;;;;4.22;2.78;;;;;;;23.40;41.45;98347.75;5049721;28;20300;-69
2023/07/28 08:03:36;;;;;;;4.72;2.72;;;;;;;23.89;41.14;98423.63;5067039;28;20037;-69
2023/07/28 08:06:02;;;;;;;3.88;2.70;;;;;;;23.98;40.42;98420.63;5067008;28;20041;-69
2023/07/28 08:08:29;;;;;;;3.55;2.20;;;;;;;24.05;40.49;98419.88;5067272;28;20264;-69
2023/07/28 08:10:56;;;;;;;4.28;2.65;;;;;;;24.11;40.24;98425.34;5067386;28;20107;-69
2023/07/28 08:13:23;;;;;;;3.90;2.50;;;;;;;24.00;40.28;98398.78;5066665;28;20040;-69
2023/07/28 08:15:50;;;;;;;4.30;2.55;;;;;;;24.02;40.20;98380.50;5066718;28;20049;-69
2023/07/28 08:18:17;;;;;;;6.88;2.72;;;;;;;24.41;40.40;98408.94;5049282;28;20037;-70
2023/07/28 08:20:45;;;;;;;5.00;2.70;;;;;;;24.44;40.10;98422.94;5049278;28;20041;-68
2023/07/28 08:23:12;;;;;;;6.40;2.80;;;;;;;24.62;39.89;98414.31;5049757;28;20049;-69
2023/07/28 08:25:39;;;;;;;4.20;2.85;;;;;;;24.81;40.08;98420.97;5067206;28;20036;-68
2023/07/28 08:28:06;;;;;;;4.40;2.72;;;;;;;24.58;39.62;98416.59;5066547;28;20045;-69
2023/07/28 08:30:33;;;;;;;6.32;3.03;;;;;;;24.49;39.81;98389.84;5049435;28;20320;-70
2023/07/28 08:33:00;;;;;;;4.03;2.60;;;;;;;24.82;39.97;98406.38;5067096;28;20041;-67
2023/07/28 08:35:27;;;;;;;4.18;2.55;;;;;;;25.10;39.02;98407.19;5066805;28;20063;-68
2023/07/28 08:37:55;;;;;;;4.72;3.33;;;;;;;25.01;39.09;98411.13;5067072;28;20053;-70
2023/07/28 08:40:24;;;;;;;3.30;2.15;;;;;;;25.21;39.85;98403.09;5066552;28;20051;-69
2023/07/28 08:42:52;;;;;;;4.13;2.95;;;;;;;25.07;39.23;98387.78;5066658;28;20047;-70
2023/07/28 08:45:20;;;;;;;4.45;2.60;;;;;;;25.15;39.16;98401.19;5048851;28;20055;-70
2023/07/28 08:47:47;;;;;;;3.78;2.65;;;;;;;25.43;39.11;98412.81;5066353;28;20045;-70
2023/07/28 08:50:14;;;;;;;7.38;3.25;;;;;;;25.28;38.79;98391.22;5048866;28;20309;-70
2023/07/28 08:52:40;;;;;;;11.50;3.05;;;;;;;25.21;39.23;98416.66;5048699;28;20045;-70
2023/07/28 08:55:11;;;;;;;3.47;2.55;;;;;;;25.35;38.97;98423.00;5066374;28;20041;-69
2023/07/28 08:57:37;;;;;;;5.97;2.92;;;;;;;25.38;38.84;98433.44;5065979;28;20290;-70
2023/07/28 09:00:13;;;;;;;6.72;2.58;;;;;;;25.38;38.95;98430.75;5066585;28;20174;-70
2023/07/28 09:02:41;;;;;;;19.02;3.40;;;;;;;25.38;39.10;98433.44;5066377;28;20040;-68
2023/07/28 09:05:17;;;;;;;7.60;2.78;;;;;;;25.23;39.21;98447.94;5066114;28;20057;-67
2023/07/28 09:07:44;;;;;;;4.80;2.60;;;;;;;25.27;39.21;98448.38;5048488;28;20037;-66
2023/07/28 09:10:12;;;;;;;11.88;3.08;;;;;;;25.40;39.34;98418.66;5066349;28;20044;-67
2023/07/28 09:12:46;;;;;;;5.32;2.75;;;;;;;25.46;38.68;98409.69;5066386;28;20099;-70
2023/07/28 09:15:12;;;;;;;8.45;3.40;;;;;;;25.34;39.17;98443.88;5065819;28;20213;-70
2023/07/28 09:17:43;;;;;;;6.18;2.33;;;;;;;25.59;39.09;98438.75;5065670;28;20343;-67
2023/07/28 09:20:14;;;;;;;4.35;2.60;;;;;;;25.76;38.87;98431.09;5065431;28;20057;-67
2023/07/28 09:22:41;;;;;;;3.75;2.40;;;;;;;25.67;37.93;98435.03;5065748;28;20095;-67
2023/07/28 09:25:15;;;;;;;5.40;2.53;;;;;;;25.68;38.75;98442.97;5064749;28;20068;-68
2023/07/28 09:27:42;;;;;;;11.25;2.85;;;;;;;25.70;38.29;98445.47;5065708;28;20118;-68
2023/07/28 09:30:09;;;;;;;8.40;3.97;;;;;;;25.61;38.41;98438.56;5049024;28;20041;-69
2023/07/28 09:32:37;;;;;;;21.10;3.65;;;;;;;26.03;38.18;98434.75;5065242;28;20052;-69
2023/07/28 09:35:09;;;;;;;8.13;3.53;;;;;;;26.02;38.10;98425.78;5065688;28;20045;-68
2023/07/28 09:37:39;;;;;;;10.10;3.47;;;;;;;25.61;37.90;98347.16;5065413;28;20044;-69
2023/07/28 09:40:11;;;;;;;7.30;3.38;;;;;;;25.97;37.07;98443.69;5047832;28;20098;-68
2023/07/28 09:42:39;;;;;;;5.97;3.20;;;;;;;26.08;37.62;98451.25;5048588;28;20083;-69
2023/07/28 09:45:08;;;;;;;14.20;3.65;;;;;;;25.79;37.09;98369.09;5065243;28;20040;-69
2023/07/28 09:47:35;;;;;;;11.60;3.80;;;;;;;25.99;37.35;98449.78;5065407;28;20051;-69
2023/07/28 09:50:04;;;;;;;5.90;2.58;;;;;;;25.96;37.44;98447.44;5047619;28;20040;-69
2023/07/28 09:52:35;;;;;;;18.23;4.20;;;;;;;25.96;37.15;98426.56;5065375;28;20053;-69
2023/07/28 09:55:07;;;;;;;26.50;5.07;;;;;;;25.81;37.67;98417.75;5065551;28;20071;-69
2023/07/28 09:57:40;;;;;;;6.78;3.03;;;;;;;25.94;37.52;98444.09;5065266;28;20108;-69
2023/07/28 10:00:10;;;;;;;5.90;2.70;;;;;;;25.91;37.72;98408.19;5065097;28;20335;-68
2023/07/28 10:02:38;;;;;;;3.67;2.72;;;;;;;26.10;37.68;98432.88;5065046;28;20051;-69
2023/07/28 10:05:06;;;;;;;3.72;2.55;;;;;;;26.06;37.42;98415.34;5047528;28;20208;-68
2023/07/28 10:07:35;;;;;;;23.30;4.47;;;;;;;26.23;37.62;98427.47;5065133;28;20041;-68
2023/07/28 10:10:05;;;;;;;6.80;2.58;;;;;;;26.33;37.67;98419.75;5047994;28;20056;-70
2023/07/28 10:12:43;;;;;;;3.88;2.45;;;;;;;26.41;37.47;98426.88;5047620;28;20036;-69
2023/07/28 10:15:15;;;;;;;8.93;3.13;;;;;;;26.42;37.13;98413.06;5047432;28;20301;-69
2023/07/28 10:17:44;;;;;;;4.95;2.80;;;;;;;26.67;37.06;98407.88;5064878;28;20045;-68
2023/07/28 10:20:30;;;;;;;6.00;2.55;;;;;;;26.65;37.24;98403.69;5047775;28;20059;-69
2023/07/28 10:23:04;;;;;;;3.97;2.80;;;;;;;26.90;36.96;98404.72;5047864;28;20071;-69
2023/07/28 10:25:32;;;;;;;;;;;;;;;26.65;36.87;98428.16;5025666;28;20050;-69
2023/07/28 10:28:03;;;;;;;3.53;2.63;;;;;;;26.43;37.46;98403.03;5025270;28;19928;-69
2023/07/28 10:30:37;;;;;;;3.72;2.33;;;;;;;26.54;37.28;98457.59;5025392;28;20058;-69
2023/07/28 10:33:04;;;;;;;5.32;1.90;;;;;;;26.53;37.64;98412.44;5024203;28;20046;-69
2023/07/28 10:35:33;;;;;;;3.75;2.38;;;;;;;26.60;37.40;98414.31;5025399;28;20237;-69
2023/07/28 10:38:31;;;;;;;9.25;3.13;;;;;;;26.45;37.59;98439.00;5028185;28;20052;-69
2023/07/28 10:41:09;;;;;;;5.72;2.47;;;;;;;26.42;38.00;98415.78;5028892;28;20309;-69
2023/07/28 10:43:38;;;;;;;26.15;4.18;;;;;;;26.66;37.43;98406.19;5029214;28;20065;-69
2023/07/28 10:46:07;;;;;;;16.40;3.50;;;;;;;26.94;37.19;98405.94;5029055;28;20042;-70
2023/07/28 10:48:36;;;;;;;5.97;2.72;;;;;;;26.80;37.65;98426.06;5028512;28;20368;-69
2023/07/28 10:51:02;;;;;;;7.38;3.47;;;;;;;26.58;38.10;98403.66;5027750;28;20038;-69
2023/07/28 10:53:28;;;;;;;5.45;2.40;;;;;;;26.45;38.45;98415.38;5028825;28;20217;-69
2023/07/28 10:55:55;;;;;;;7.85;3.20;;;;;;;26.51;38.34;98410.97;5028535;28;20294;-69
2023/07/28 10:58:22;;;;;;;3.80;2.38;;;;;;;26.54;38.14;98418.72;5028686;28;20042;-69
2023/07/28 11:00:52;;;;;;;11.10;2.83;;;;;;;26.44;38.73;98402.00;5028771;28;20096;-69
2023/07/28 11:03:19;;;;;;;5.10;2.20;;;;;;;26.26;38.91;98435.22;5028815;28;20046;-69
2023/07/28 11:05:48;;;;;;;3.83;2.20;;;;;;;26.38;38.79;98463.44;5028991;28;20041;-69
2023/07/28 11:08:15;;;;;;;2.95;2.25;;;;;;;26.31;39.18;98429.16;5027897;28;20069;-69
2023/07/28 11:10:42;;;;;;;11.27;2.95;;;;;;;26.29;39.03;98415.78;5028722;28;20046;-68
2023/07/28 11:13:09;;;;;;;23.33;4.95;;;;;;;26.13;39.63;98440.63;5028605;28;20108;-69
2023/07/28 11:15:36;;;;;;;31.55;4.53;;;;;;;26.30;39.36;98444.63;5028811;28;20099;-69
2023/07/28 11:18:04;;;;;;;10.70;2.63;;;;;;;26.31;39.63;98459.88;5028184;28;20100;-69
2023/07/28 11:20:32;;;;;;;7.28;2.83;;;;;;;26.35;39.38;98430.41;5027775;28;20088;-69
2023/07/28 11:23:01;;;;;;;7.45;2.38;;;;;;;26.42;39.16;98445.69;5028540;28;20213;-69
2023/07/28 11:25:29;;;;;;;8.57;2.45;;;;;;;26.52;38.78;98437.09;5067519;28;20111;-68
2023/07/28 11:27:56;;;;;;;3.90;2.35;;;;;;;26.49;39.17;98405.75;5068171;28;20064;-69
2023/07/28 11:30:24;;;;;;;5.65;2.50;;;;;;;26.35;38.90;98378.81;5068205;28;20053;-69
2023/07/28 11:32:52;;;;;;;6.80;2.80;;;;;;;26.63;39.50;98416.66;5068187;28;20045;-69
2023/07/28 11:35:22;;;;;;;6.63;2.60;;;;;;;26.49;38.73;98405.75;5067997;28;20289;-69
2023/07/28 11:37:51;;;;;;;4.00;2.47;;;;;;;26.69;39.15;98432.13;5050450;28;20049;-69